Terminal Aerodrome Forecast
Issued by NWS Milwaukee/Sullivan, WI

Home | Current Version | Previous Version | Text Only | Print | Product List | Glossary On
Versions: 1 2 3 4 5 6 7 8 9 10 11 12 13 14 15 16 17 18 19 20 21 22 23 24 25 26 27 28 29 30 31 32 33 34 35 36 37 38 39 40 41 42 43 44 45 46 47
000
FTUS43 KMKX 250520
TAFMSN
TAF
KMSN 250520Z 2506/2606 10010KT P6SM OVC040
     FM250900 09011KT P6SM OVC025
     FM251300 08014G22KT 6SM -RA OVC015
     FM252000 07015G24KT P6SM VCSH OVC025
     FM252300 07014KT P6SM OVC050
     FM260200 05010KT P6SM SCT110=

USA.gov is the U.S. government's official web portal to all federal, state and local government web resources and services.